createdAt,value
2022-09-23T00:02:11.448Z,71.76
2022-09-23T00:04:39.636Z,71.39
2022-09-23T00:07:09.404Z,71.81
2022-09-23T00:09:37.529Z,72.91
2022-09-23T00:12:09.071Z,72.47
2022-09-23T00:14:39.251Z,72.67
2022-09-23T00:17:07.579Z,73.15
2022-09-23T00:19:35.895Z,73.20
2022-09-23T00:22:04.680Z,73.96
2022-09-23T00:24:34.461Z,74.52
2022-09-23T00:27:02.880Z,74.54
2022-09-23T00:29:32.078Z,75.16
2022-09-23T00:32:00.311Z,75.10
2022-09-23T00:34:28.412Z,74.63
2022-09-23T00:36:57.186Z,74.37
2022-09-23T00:39:26.189Z,73.26
2022-09-23T00:41:56.158Z,72.57
2022-09-23T00:44:44.266Z,72.61
2022-09-23T00:47:19.684Z,72.55
2022-09-23T00:49:52.291Z,72.60
2022-09-23T00:52:24.530Z,72.62
2022-09-23T00:54:56.402Z,73.22
2022-09-23T00:57:27.451Z,73.44
2022-09-23T00:59:56.362Z,73.34
2022-09-23T01:02:24.900Z,74.24
2022-09-23T01:04:53.092Z,74.11
2022-09-23T01:07:22.023Z,73.51
2022-09-23T01:09:50.983Z,73.13
2022-09-23T01:12:35.888Z,72.80
2022-09-23T01:15:12.321Z,73.10
2022-09-23T01:17:47.627Z,73.41
2022-09-23T01:20:50.592Z,73.15
2022-09-23T01:23:53.405Z,73.96
2022-09-23T01:26:45.326Z,73.21
2022-09-23T01:29:42.330Z,73.25
2022-09-23T01:32:21.473Z,73.56
2022-09-23T01:34:56.980Z,74.30
2022-09-23T01:37:35.281Z,74.64
2022-09-23T01:40:08.436Z,73.96
2022-09-23T01:42:40.731Z,73.80
2022-09-23T01:45:16.581Z,73.80
2022-09-23T01:47:52.496Z,74.03
2022-09-23T01:50:41.064Z,73.74
2022-09-23T01:53:19.908Z,74.13
2022-09-23T01:55:52.621Z,74.38
2022-09-23T01:58:25.854Z,74.12
2022-09-23T02:00:59.947Z,74.23
2022-09-23T02:03:33.879Z,74.35
2022-09-23T02:06:08.590Z,74.31
2022-09-23T02:08:42.957Z,74.68
2022-09-23T02:11:15.216Z,74.93
2022-09-23T02:13:49.996Z,75.14
2022-09-23T02:16:26.419Z,75.54
2022-09-23T02:19:01.297Z,76.66
2022-09-23T02:21:40.019Z,76.62
2022-09-23T02:24:13.708Z,76.47
2022-09-23T02:26:49.144Z,77.08
2022-09-23T02:29:21.845Z,76.75
2022-09-23T02:31:59.695Z,76.51
2022-09-23T02:34:42.286Z,76.72
2022-09-23T02:37:21.091Z,76.63
2022-09-23T02:39:59.510Z,76.60
2022-09-23T02:42:39.470Z,76.65
2022-09-23T02:45:08.307Z,76.20
2022-09-23T02:47:39.714Z,76.13
2022-09-23T02:50:10.703Z,75.63
2022-09-23T02:52:39.223Z,75.64
2022-09-23T02:55:11.070Z,74.72
2022-09-23T02:57:39.727Z,74.59
2022-09-23T03:00:10.415Z,74.63
2022-09-23T03:03:05.384Z,74.28
2022-09-23T03:05:38.166Z,74.78
2022-09-23T03:08:21.463Z,74.80
2022-09-23T03:10:57.382Z,74.51
2022-09-23T03:13:35.292Z,74.48
2022-09-23T03:16:12.998Z,75.03
2022-09-23T03:18:44.917Z,75.58
2022-09-23T03:21:18.779Z,75.13
2022-09-23T03:23:49.536Z,75.67
2022-09-23T03:26:23.060Z,75.89
2022-09-23T03:28:52.073Z,75.81
2022-09-23T03:31:20.691Z,75.87
2022-09-23T03:33:53.651Z,74.78
2022-09-23T03:36:45.949Z,74.75
2022-09-23T03:39:22.478Z,74.77
2022-09-23T03:41:54.217Z,74.56
2022-09-23T03:44:23.539Z,74.67
2022-09-23T03:46:51.865Z,74.65
2022-09-23T03:49:27.429Z,75.67
2022-09-23T03:51:57.342Z,75.83
2022-09-23T03:54:25.948Z,76.13
2022-09-23T03:56:54.969Z,76.19
2022-09-23T03:59:23.179Z,76.94
2022-09-23T04:01:51.592Z,76.65
2022-09-23T04:04:21.209Z,76.59
2022-09-23T04:06:49.835Z,76.48
2022-09-23T04:09:19.475Z,75.63
2022-09-23T04:11:49.103Z,75.75
2022-09-23T04:14:18.199Z,75.14
2022-09-23T04:16:47.016Z,75.04
2022-09-23T04:19:15.969Z,74.95
2022-09-23T04:21:45.664Z,74.83
2022-09-23T04:24:14.200Z,74.69
2022-09-23T04:26:44.078Z,76.54
2022-09-23T04:29:12.245Z,75.76
2022-09-23T04:31:40.789Z,74.68
2022-09-23T04:34:09.090Z,74.44
2022-09-23T04:36:37.178Z,74.67
2022-09-23T04:39:06.342Z,73.83
2022-09-23T04:41:34.639Z,73.04
2022-09-23T04:44:04.379Z,71.52
2022-09-23T04:46:33.025Z,70.45
2022-09-23T04:49:01.508Z,69.71
2022-09-23T04:51:29.678Z,69.17
2022-09-23T04:53:57.937Z,70.63
2022-09-23T04:56:28.071Z,69.92
2022-09-23T04:58:57.372Z,68.69
2022-09-23T05:01:28.903Z,68.46
2022-09-23T05:04:01.966Z,68.98
2022-09-23T05:06:31.590Z,67.83
2022-09-23T05:09:00.761Z,64.26
2022-09-23T05:11:31.708Z,61.00
2022-09-23T05:14:00.570Z,60.15
2022-09-23T05:16:31.063Z,60.40
2022-09-23T05:18:59.696Z,56.63
2022-09-23T05:21:29.075Z,55.34
2022-09-23T05:24:00.649Z,55.64
2022-09-23T05:26:30.510Z,55.78
2022-09-23T05:28:58.627Z,54.54
2022-09-23T05:31:28.847Z,54.36
2022-09-23T05:34:00.154Z,51.46
2022-09-23T05:36:34.221Z,48.94
2022-09-23T05:39:04.736Z,50.59
2022-09-23T05:41:34.049Z,51.28
2022-09-23T05:44:02.821Z,50.23
2022-09-23T05:46:32.269Z,51.16
2022-09-23T05:49:03.621Z,54.57
2022-09-23T05:51:33.004Z,50.44
2022-09-23T05:54:04.389Z,46.66
2022-09-23T05:56:33.864Z,47.28
2022-09-23T05:59:06.328Z,46.17
2022-09-23T06:01:38.159Z,45.27
2022-09-23T06:04:13.280Z,45.60
2022-09-23T06:06:43.127Z,49.76
2022-09-23T06:09:14.939Z,50.53
2022-09-23T06:11:44.647Z,51.46
2022-09-23T06:14:14.974Z,53.55
2022-09-23T06:16:43.384Z,55.24
2022-09-23T06:19:12.976Z,55.58
2022-09-23T06:21:41.831Z,56.29
2022-09-23T06:24:16.178Z,56.61
2022-09-23T06:26:47.079Z,56.58
2022-09-23T06:29:15.469Z,57.37
2022-09-23T06:31:43.807Z,57.43
2022-09-23T06:34:15.001Z,58.09
2022-09-23T06:36:45.354Z,57.53
2022-09-23T06:39:14.857Z,58.47
2022-09-23T06:41:43.409Z,58.82
2022-09-23T06:44:11.545Z,58.56
2022-09-23T06:46:39.789Z,57.12
2022-09-23T06:49:08.137Z,54.89
2022-09-23T06:51:37.685Z,54.04
2022-09-23T06:54:06.190Z,54.30
2022-09-23T06:56:38.720Z,55.65
2022-09-23T06:59:10.947Z,55.01
2022-09-23T07:01:39.353Z,53.70
2022-09-23T07:04:08.198Z,54.32
2022-09-23T07:06:39.077Z,55.20
2022-09-23T07:09:08.136Z,54.07
2022-09-23T07:11:36.293Z,55.11
2022-09-23T07:14:04.829Z,56.23
2022-09-23T07:16:33.681Z,55.99
2022-09-23T07:19:02.606Z,57.05
2022-09-23T07:21:30.868Z,54.68
2022-09-23T07:24:00.528Z,55.92
2022-09-23T07:26:29.665Z,56.10
2022-09-23T07:29:05.027Z,54.98
2022-09-23T07:31:39.288Z,55.52
2022-09-23T07:34:10.046Z,55.13
2022-09-23T07:36:40.978Z,53.78
2022-09-23T07:39:12.342Z,50.52
2022-09-23T07:41:41.790Z,51.32
2022-09-23T07:44:11.206Z,51.37
2022-09-23T07:46:40.214Z,51.76
2022-09-23T07:49:08.542Z,51.50
2022-09-23T07:51:39.451Z,50.46
2022-09-23T07:54:09.124Z,51.38
2022-09-23T07:56:39.873Z,51.07
2022-09-23T07:59:09.704Z,49.98
2022-09-23T08:01:39.522Z,50.50
2022-09-23T08:04:10.062Z,50.12
2022-09-23T08:06:42.121Z,50.36
2022-09-23T08:09:10.698Z,48.87
2022-09-23T08:11:42.235Z,49.88
2022-09-23T08:14:14.466Z,49.49
2022-09-23T08:16:44.158Z,48.88
2022-09-23T08:19:13.188Z,48.38
2022-09-23T08:21:42.064Z,46.71
2022-09-23T08:24:13.961Z,46.37
2022-09-23T08:26:43.553Z,44.75
2022-09-23T08:29:14.062Z,45.96
2022-09-23T08:31:42.614Z,43.75
2022-09-23T08:34:11.295Z,44.12
2022-09-23T08:36:39.507Z,44.90
2022-09-23T08:39:08.377Z,46.35
2022-09-23T08:41:41.154Z,46.25
2022-09-23T08:44:15.239Z,45.41
2022-09-23T08:46:48.034Z,44.46
2022-09-23T08:49:24.999Z,43.31
2022-09-23T08:51:56.078Z,44.08
2022-09-23T08:54:28.341Z,43.49
2022-09-23T08:57:01.070Z,44.33
2022-09-23T08:59:39.072Z,43.00
2022-09-23T09:02:14.745Z,43.25
2022-09-23T09:04:45.490Z,44.12
2022-09-23T09:07:36.641Z,43.73
2022-09-23T09:10:11.572Z,42.88
2022-09-23T09:12:44.774Z,42.22
2022-09-23T09:15:16.627Z,42.88
2022-09-23T09:17:53.002Z,41.62
2022-09-23T09:20:25.559Z,43.55
2022-09-23T09:22:57.952Z,43.89
2022-09-23T09:25:39.239Z,41.94
2022-09-23T09:28:16.799Z,42.35
2022-09-23T09:30:51.490Z,41.80
2022-09-23T09:33:25.466Z,41.40
2022-09-23T09:36:09.066Z,40.88
2022-09-23T09:38:37.686Z,41.98
2022-09-23T09:41:15.368Z,42.32
2022-09-23T09:43:48.521Z,43.93
2022-09-23T09:46:34.323Z,46.74
2022-09-23T09:49:09.894Z,46.38
2022-09-23T09:51:39.770Z,46.51
2022-09-23T09:54:23.147Z,47.20
2022-09-23T09:56:52.630Z,47.48
2022-09-23T09:59:27.552Z,46.62
2022-09-23T10:02:21.510Z,46.97
2022-09-23T10:04:58.031Z,47.06
2022-09-23T10:07:28.529Z,47.16
2022-09-23T10:10:01.852Z,47.82
2022-09-23T10:12:46.234Z,49.33
2022-09-23T10:15:31.355Z,49.73
2022-09-23T10:18:02.602Z,49.20
2022-09-23T10:20:36.529Z,49.70
2022-09-23T10:23:09.997Z,49.42
2022-09-23T10:25:38.559Z,48.61
2022-09-23T10:28:32.353Z,47.95
2022-09-23T10:31:09.028Z,47.85
2022-09-23T10:33:48.234Z,46.72
2022-09-23T10:36:18.471Z,48.03
2022-09-23T10:38:50.601Z,48.42
2022-09-23T10:42:00.081Z,48.31
2022-09-23T10:44:52.714Z,47.45
2022-09-23T10:47:34.621Z,48.57
2022-09-23T10:50:15.611Z,47.97
2022-09-23T10:52:56.127Z,47.49
2022-09-23T10:55:42.269Z,47.75
2022-09-23T10:58:39.128Z,46.54
2022-09-23T11:01:20.344Z,46.88
2022-09-23T11:04:09.363Z,47.08
2022-09-23T11:06:48.785Z,46.41
2022-09-23T11:09:31.487Z,46.45
2022-09-23T11:12:15.239Z,45.90
2022-09-23T11:14:53.756Z,46.43
2022-09-23T11:17:44.853Z,45.87
2022-09-23T11:20:27.523Z,45.20
2022-09-23T11:23:35.989Z,45.20
2022-09-23T11:26:13.765Z,45.19
2022-09-23T11:29:10.325Z,44.48
2022-09-23T11:31:54.138Z,45.73
2022-09-23T11:35:03.094Z,44.71
2022-09-23T11:37:36.827Z,43.87
2022-09-23T11:40:15.630Z,43.62
2022-09-23T11:42:53.626Z,43.34
2022-09-23T11:45:25.955Z,44.18
2022-09-23T11:47:59.305Z,45.14
2022-09-23T11:50:33.976Z,45.35
2022-09-23T11:53:07.182Z,46.20
2022-09-23T11:55:55.990Z,46.15
2022-09-23T11:58:30.822Z,46.20
2022-09-23T12:01:06.831Z,46.44
2022-09-23T12:03:45.644Z,46.61
2022-09-23T12:06:19.028Z,47.72
2022-09-23T12:08:47.334Z,47.41
2022-09-23T12:11:28.207Z,47.21
2022-09-23T12:14:08.971Z,48.61
2022-09-23T12:16:55.265Z,49.33
2022-09-23T12:19:51.927Z,49.96
2022-09-23T12:22:36.723Z,49.89
2022-09-23T12:25:23.713Z,59.58
2022-09-23T12:27:57.360Z,64.94
2022-09-23T12:30:29.128Z,66.20
2022-09-23T12:33:10.303Z,74.65
2022-09-23T12:35:44.904Z,80.13
2022-09-23T12:38:20.867Z,95.50
2022-09-23T12:40:49.683Z,100.00
2022-09-23T12:43:22.304Z,100.00
2022-09-23T12:45:50.998Z,100.00
2022-09-23T12:48:47.680Z,100.00
2022-09-23T12:51:21.139Z,100.00
2022-09-23T12:53:58.689Z,100.00
2022-09-23T12:57:03.395Z,100.00
2022-09-23T12:59:53.883Z,100.00
2022-09-23T13:02:30.760Z,100.00
2022-09-23T13:05:23.078Z,100.00
2022-09-23T13:07:52.019Z,100.00
2022-09-23T13:10:28.978Z,100.00
2022-09-23T13:12:58.581Z,100.00
2022-09-23T13:15:33.172Z,100.00
2022-09-23T13:18:26.372Z,100.00
2022-09-23T13:20:56.953Z,93.75
2022-09-23T13:23:27.117Z,90.28
2022-09-23T13:25:58.191Z,87.47
2022-09-23T13:28:34.062Z,86.62
2022-09-23T13:31:07.159Z,89.26
2022-09-23T13:33:45.466Z,86.28
2022-09-23T13:36:16.200Z,76.84
2022-09-23T13:38:46.189Z,78.39
2022-09-23T13:41:17.432Z,78.23
2022-09-23T13:43:48.981Z,73.47
2022-09-23T13:46:22.146Z,77.08
2022-09-23T13:48:54.739Z,81.77
2022-09-23T13:51:27.120Z,88.89
2022-09-23T13:53:56.589Z,87.78
2022-09-23T13:56:26.566Z,81.65
2022-09-23T13:58:56.005Z,80.01
2022-09-23T14:01:33.193Z,84.38
2022-09-23T14:04:02.228Z,90.87
2022-09-23T14:06:32.121Z,90.72
2022-09-23T14:09:03.517Z,89.91
2022-09-23T14:11:35.215Z,81.18
2022-09-23T14:14:07.242Z,81.99
2022-09-23T14:16:41.004Z,73.31
2022-09-23T14:19:17.887Z,73.46
2022-09-23T14:21:50.278Z,75.72
2022-09-23T14:24:20.549Z,76.27
2022-09-23T14:26:54.282Z,76.71
2022-09-23T14:29:26.737Z,78.68
2022-09-23T14:31:58.232Z,81.72
2022-09-23T14:34:44.756Z,74.96
2022-09-23T14:37:44.345Z,76.45
2022-09-23T14:40:18.798Z,75.30
2022-09-23T14:42:51.524Z,75.96
2022-09-23T14:45:23.134Z,76.61
2022-09-23T14:47:57.895Z,77.85
2022-09-23T14:50:39.989Z,75.24
2022-09-23T14:53:32.645Z,78.47
2022-09-23T14:56:14.668Z,86.20
2022-09-23T14:58:53.030Z,90.21
2022-09-23T15:01:42.324Z,75.01
2022-09-23T15:04:31.666Z,72.12
2022-09-23T15:07:09.558Z,79.08
2022-09-23T15:09:40.920Z,81.17
2022-09-23T15:12:14.007Z,89.45
2022-09-23T15:14:46.591Z,93.47
2022-09-23T15:17:33.732Z,95.20
2022-09-23T15:20:05.606Z,96.03
2022-09-23T15:22:43.654Z,96.31
2022-09-23T15:25:21.527Z,96.30
2022-09-23T15:28:02.482Z,95.09
2022-09-23T15:30:32.136Z,94.30
2022-09-23T15:33:01.130Z,91.40
2022-09-23T15:35:32.137Z,92.39
2022-09-23T15:38:01.806Z,95.37
2022-09-23T15:40:31.709Z,96.48
2022-09-23T15:43:01.631Z,96.53
2022-09-23T15:45:33.478Z,97.36
2022-09-23T15:48:08.097Z,96.93
2022-09-23T15:50:38.351Z,95.94
2022-09-23T15:53:07.189Z,89.15
2022-09-23T15:55:35.543Z,87.72
2022-09-23T15:58:03.656Z,88.07
2022-09-23T16:00:31.972Z,87.75
2022-09-23T16:03:01.185Z,86.68
2022-09-23T16:05:33.217Z,85.48
2022-09-23T16:08:08.455Z,84.87
2022-09-23T16:10:38.264Z,84.97
2022-09-23T16:13:09.074Z,85.67
2022-09-23T16:15:39.160Z,86.96
2022-09-23T16:18:08.102Z,87.20
2022-09-23T16:20:37.471Z,86.46
2022-09-23T16:23:15.073Z,86.75
2022-09-23T16:25:44.546Z,87.52
2022-09-23T16:28:12.626Z,87.82
2022-09-23T16:30:41.030Z,87.70
2022-09-23T16:33:09.123Z,87.91
2022-09-23T16:35:39.081Z,87.91
2022-09-23T16:38:09.588Z,87.99
2022-09-23T16:40:37.882Z,87.61
2022-09-23T16:43:06.072Z,88.09
2022-09-23T16:45:34.772Z,89.14
2022-09-23T16:48:03.260Z,88.78
2022-09-23T16:50:33.625Z,88.74
2022-09-23T16:53:01.786Z,88.44
2022-09-23T16:55:31.408Z,88.71
2022-09-23T16:57:59.672Z,89.81
2022-09-23T17:00:45.334Z,94.00
2022-09-23T17:03:31.812Z,96.32
2022-09-23T17:06:03.479Z,93.31
2022-09-23T17:08:38.636Z,92.70
2022-09-23T17:11:08.823Z,96.35
2022-09-23T17:13:37.072Z,97.84
2022-09-23T17:16:05.498Z,96.86
2022-09-23T17:18:33.736Z,94.18
2022-09-23T17:21:05.275Z,95.31
2022-09-23T17:23:35.201Z,96.78
2022-09-23T17:26:05.532Z,97.25
2022-09-23T17:28:35.173Z,97.60
2022-09-23T17:31:05.519Z,97.86
2022-09-23T17:33:37.303Z,98.40
2022-09-23T17:36:08.999Z,98.13
2022-09-23T17:38:41.019Z,99.43
2022-09-23T17:41:10.309Z,99.58
2022-09-23T17:43:41.062Z,98.98
2022-09-23T17:46:11.384Z,98.20
2022-09-23T17:48:41.499Z,98.84
2022-09-23T17:51:12.364Z,99.14
2022-09-23T17:53:42.293Z,99.34
2022-09-23T17:56:17.436Z,97.53
2022-09-23T17:58:48.780Z,94.44
2022-09-23T18:01:18.864Z,93.37
2022-09-23T18:03:48.077Z,90.93
2022-09-23T18:06:17.843Z,87.51
2022-09-23T18:08:47.953Z,86.67
2022-09-23T18:11:18.415Z,86.02
2022-09-23T18:13:53.284Z,84.69
2022-09-23T18:16:23.788Z,83.23
2022-09-23T18:18:53.166Z,83.12
2022-09-23T18:21:22.219Z,83.46
2022-09-23T18:23:50.790Z,83.17
2022-09-23T18:26:19.993Z,84.65
2022-09-23T18:28:48.627Z,83.64
2022-09-23T18:31:18.754Z,81.99
2022-09-23T18:33:50.828Z,81.64
2022-09-23T18:36:19.674Z,79.85
2022-09-23T18:38:48.178Z,79.90
2022-09-23T18:41:16.804Z,80.45
2022-09-23T18:43:48.467Z,81.30
2022-09-23T18:46:20.511Z,80.74
2022-09-23T18:49:07.047Z,80.29
2022-09-23T18:51:38.318Z,80.76
2022-09-23T18:54:08.445Z,81.09
2022-09-23T18:56:42.199Z,80.25
2022-09-23T18:59:14.532Z,80.03
2022-09-23T19:01:45.958Z,79.65
2022-09-23T19:04:16.436Z,81.71
2022-09-23T19:06:44.738Z,78.84
2022-09-23T19:09:13.479Z,81.46
2022-09-23T19:11:41.716Z,81.66
2022-09-23T19:14:12.622Z,78.19
2022-09-23T19:16:44.070Z,78.21
2022-09-23T19:19:12.157Z,79.04
2022-09-23T19:21:40.602Z,81.54
2022-09-23T19:24:09.562Z,83.44
2022-09-23T19:26:40.366Z,80.33
2022-09-23T19:29:14.473Z,82.58
2022-09-23T19:31:44.087Z,80.14
2022-09-23T19:34:15.236Z,79.70
2022-09-23T19:36:44.934Z,82.11
2022-09-23T19:39:17.771Z,81.69
2022-09-23T19:41:46.737Z,80.57
2022-09-23T19:44:15.444Z,79.60
2022-09-23T19:46:46.381Z,79.47
2022-09-23T19:49:15.277Z,78.96
2022-09-23T19:51:44.302Z,77.51
2022-09-23T19:54:13.097Z,79.06
2022-09-23T19:56:41.717Z,76.21
2022-09-23T19:59:09.848Z,75.88
2022-09-23T20:01:38.742Z,75.03
2022-09-23T20:04:08.814Z,72.85
2022-09-23T20:06:39.490Z,72.65
2022-09-23T20:09:07.854Z,72.65
2022-09-23T20:11:36.029Z,72.14
2022-09-23T20:14:06.401Z,73.31
2022-09-23T20:16:37.462Z,73.53
2022-09-23T20:19:07.589Z,74.10
2022-09-23T20:21:35.964Z,75.23
2022-09-23T20:24:06.590Z,75.16
2022-09-23T20:26:52.502Z,74.93
2022-09-23T20:29:20.756Z,74.84
2022-09-23T20:31:49.329Z,74.17
2022-09-23T20:34:19.729Z,73.86
2022-09-23T20:36:47.929Z,73.54
2022-09-23T20:39:16.128Z,73.99
2022-09-23T20:41:44.259Z,73.76
2022-09-23T20:44:13.993Z,73.28
2022-09-23T20:46:47.758Z,74.17
2022-09-23T20:49:17.054Z,73.98
2022-09-23T20:51:48.213Z,74.10
2022-09-23T20:54:16.541Z,75.37
2022-09-23T20:56:44.678Z,76.58
2022-09-23T20:59:15.020Z,77.09
2022-09-23T21:01:43.434Z,77.04
2022-09-23T21:04:11.748Z,77.46
2022-09-23T21:06:40.121Z,77.46
2022-09-23T21:09:09.796Z,77.14
2022-09-23T21:11:38.346Z,76.70
2022-09-23T21:14:06.662Z,77.45
2022-09-23T21:16:35.313Z,77.36
2022-09-23T21:19:04.181Z,77.80
2022-09-23T21:21:32.305Z,77.37
2022-09-23T21:24:24.563Z,77.16
2022-09-23T21:26:54.039Z,77.26
2022-09-23T21:29:22.392Z,77.50
2022-09-23T21:31:50.597Z,77.39
2022-09-23T21:34:19.521Z,76.78
2022-09-23T21:36:48.990Z,76.50
2022-09-23T21:39:17.222Z,76.33
2022-09-23T21:41:45.495Z,75.36
2022-09-23T21:44:15.217Z,74.77
2022-09-23T21:46:43.487Z,74.59
2022-09-23T21:49:11.713Z,74.27
2022-09-23T21:51:41.757Z,74.04
2022-09-23T21:54:29.388Z,72.76
2022-09-23T21:56:57.993Z,72.95
2022-09-23T21:59:27.516Z,73.20
2022-09-23T22:01:55.814Z,72.59
2022-09-23T22:04:24.021Z,72.87
2022-09-23T22:06:54.104Z,72.71
2022-09-23T22:09:22.661Z,72.72
2022-09-23T22:12:11.252Z,73.34
2022-09-23T22:14:43.001Z,72.69
2022-09-23T22:17:14.575Z,72.88
2022-09-23T22:19:47.271Z,73.00
2022-09-23T22:22:17.984Z,73.27
2022-09-23T22:24:47.660Z,73.39
2022-09-23T22:27:18.082Z,73.68
2022-09-23T22:30:05.122Z,73.97
2022-09-23T22:32:42.970Z,73.80
2022-09-23T22:35:12.998Z,74.56
2022-09-23T22:37:41.139Z,74.48
2022-09-23T22:40:14.392Z,74.24
2022-09-23T22:42:43.376Z,75.23
2022-09-23T22:45:13.928Z,74.66
2022-09-23T22:47:45.416Z,74.23
2022-09-23T22:50:16.272Z,73.92
2022-09-23T22:52:44.474Z,74.33
2022-09-23T22:55:13.325Z,73.97
2022-09-23T22:57:41.518Z,74.04
2022-09-23T23:00:13.435Z,74.68
2022-09-23T23:02:42.571Z,74.08
2022-09-23T23:05:11.293Z,74.47
2022-09-23T23:07:39.678Z,74.11
2022-09-23T23:10:10.581Z,73.66
2022-09-23T23:12:39.679Z,73.32
2022-09-23T23:15:10.689Z,73.46
2022-09-23T23:17:41.367Z,72.89
2022-09-23T23:20:10.319Z,73.21
2022-09-23T23:22:38.451Z,75.06
2022-09-23T23:25:07.390Z,73.81
2022-09-23T23:27:36.069Z,74.53
2022-09-23T23:30:05.795Z,75.01
2022-09-23T23:32:33.904Z,74.67
2022-09-23T23:35:03.428Z,74.56
2022-09-23T23:37:31.597Z,75.51
2022-09-23T23:40:00.732Z,76.22
2022-09-23T23:42:28.847Z,75.70
2022-09-23T23:44:56.955Z,75.26
2022-09-23T23:47:26.486Z,74.02
2022-09-23T23:49:54.812Z,73.63
2022-09-23T23:52:24.305Z,73.34
2022-09-23T23:54:52.868Z,73.76
2022-09-23T23:57:21.247Z,73.76
2022-09-23T23:59:49.782Z,74.41
